sensor_id;sensor_type;location;lat;lon;timestamp;temperature;humidity
75442;DHT22;64019;48.312;14.226;2024-02-26T00:02:02;1.50;99.90
75442;DHT22;64019;48.312;14.226;2024-02-26T00:04:28;1.50;99.90
75442;DHT22;64019;48.312;14.226;2024-02-26T00:06:54;1.50;99.90
75442;DHT22;64019;48.312;14.226;2024-02-26T00:09:20;1.50;99.90
75442;DHT22;64019;48.312;14.226;2024-02-26T00:11:46;1.50;99.90
75442;DHT22;64019;48.312;14.226;2024-02-26T00:14:12;1.60;99.90
75442;DHT22;64019;48.312;14.226;2024-02-26T00:16:40;1.60;99.90
75442;DHT22;64019;48.312;14.226;2024-02-26T00:19:06;1.60;99.90
75442;DHT22;64019;48.312;14.226;2024-02-26T00:21:32;1.70;99.90
75442;DHT22;64019;48.312;14.226;2024-02-26T00:23:58;1.70;99.90
75442;DHT22;64019;48.312;14.226;2024-02-26T00:26:24;1.70;99.90
75442;DHT22;64019;48.312;14.226;2024-02-26T00:28:49;1.70;99.90
75442;DHT22;64019;48.312;14.226;2024-02-26T00:31:15;1.60;99.90
75442;DHT22;64019;48.312;14.226;2024-02-26T00:33:40;1.60;99.90
75442;DHT22;64019;48.312;14.226;2024-02-26T00:36:06;1.60;99.90
75442;DHT22;64019;48.312;14.226;2024-02-26T00:38:32;1.50;99.90
75442;DHT22;64019;48.312;14.226;2024-02-26T00:40:58;1.40;99.90
75442;DHT22;64019;48.312;14.226;2024-02-26T00:43:24;1.30;99.90
75442;DHT22;64019;48.312;14.226;2024-02-26T00:45:49;1.30;99.90
75442;DHT22;64019;48.312;14.226;2024-02-26T00:48:17;1.30;99.90
75442;DHT22;64019;48.312;14.226;2024-02-26T00:50:42;1.10;99.90
75442;DHT22;64019;48.312;14.226;2024-02-26T00:53:08;1.00;99.90
75442;DHT22;64019;48.312;14.226;2024-02-26T00:55:34;1.00;99.90
75442;DHT22;64019;48.312;14.226;2024-02-26T00:57:59;1.00;99.90
75442;DHT22;64019;48.312;14.226;2024-02-26T01:00:25;1.00;99.90
75442;DHT22;64019;48.312;14.226;2024-02-26T01:02:51;1.10;99.90
75442;DHT22;64019;48.312;14.226;2024-02-26T01:05:16;1.10;99.90
75442;DHT22;64019;48.312;14.226;2024-02-26T01:07:42;1.10;99.90
75442;DHT22;64019;48.312;14.226;2024-02-26T01:10:08;1.10;99.90
75442;DHT22;64019;48.312;14.226;2024-02-26T01:12:35;1.00;99.90
75442;DHT22;64019;48.312;14.226;2024-02-26T01:15:01;0.90;99.90
75442;DHT22;64019;48.312;14.226;2024-02-26T01:17:28;0.90;99.90
75442;DHT22;64019;48.312;14.226;2024-02-26T01:19:54;0.90;99.90
75442;DHT22;64019;48.312;14.226;2024-02-26T01:22:20;0.90;99.90
75442;DHT22;64019;48.312;14.226;2024-02-26T01:24:45;0.90;99.90
75442;DHT22;64019;48.312;14.226;2024-02-26T01:27:11;1.00;99.90
75442;DHT22;64019;48.312;14.226;2024-02-26T01:29:37;1.00;99.90
75442;DHT22;64019;48.312;14.226;2024-02-26T01:32:03;1.00;99.90
75442;DHT22;64019;48.312;14.226;2024-02-26T01:34:31;1.00;99.90
75442;DHT22;64019;48.312;14.226;2024-02-26T01:36:57;1.10;99.90
75442;DHT22;64019;48.312;14.226;2024-02-26T01:39:22;1.00;99.90
75442;DHT22;64019;48.312;14.226;2024-02-26T01:41:48;1.00;99.90
75442;DHT22;64019;48.312;14.226;2024-02-26T01:44:14;1.00;99.90
75442;DHT22;64019;48.312;14.226;2024-02-26T01:46:40;1.00;99.90
75442;DHT22;64019;48.312;14.226;2024-02-26T01:49:06;1.10;99.90
75442;DHT22;64019;48.312;14.226;2024-02-26T01:51:33;1.10;99.90
75442;DHT22;64019;48.312;14.226;2024-02-26T01:54:02;1.10;99.90
75442;DHT22;64019;48.312;14.226;2024-02-26T01:56:29;1.10;99.90
75442;DHT22;64019;48.312;14.226;2024-02-26T01:58:57;1.10;99.90
75442;DHT22;64019;48.312;14.226;2024-02-26T02:01:29;1.00;99.90
75442;DHT22;64019;48.312;14.226;2024-02-26T02:03:56;1.00;99.90
75442;DHT22;64019;48.312;14.226;2024-02-26T02:06:23;1.00;99.90
75442;DHT22;64019;48.312;14.226;2024-02-26T02:08:49;1.00;99.90
75442;DHT22;64019;48.312;14.226;2024-02-26T02:11:15;1.10;99.90
75442;DHT22;64019;48.312;14.226;2024-02-26T02:13:40;1.20;99.90
75442;DHT22;64019;48.312;14.226;2024-02-26T02:16:07;1.20;99.90
75442;DHT22;64019;48.312;14.226;2024-02-26T02:18:33;1.30;99.90
75442;DHT22;64019;48.312;14.226;2024-02-26T02:21:02;1.20;99.90
75442;DHT22;64019;48.312;14.226;2024-02-26T02:23:28;1.20;99.90
75442;DHT22;64019;48.312;14.226;2024-02-26T02:25:53;1.30;99.90
75442;DHT22;64019;48.312;14.226;2024-02-26T02:28:21;1.20;99.90
75442;DHT22;64019;48.312;14.226;2024-02-26T02:30:47;1.20;99.90
75442;DHT22;64019;48.312;14.226;2024-02-26T02:33:13;1.20;99.90
75442;DHT22;64019;48.312;14.226;2024-02-26T02:35:40;1.20;99.90
75442;DHT22;64019;48.312;14.226;2024-02-26T02:38:06;1.20;99.90
75442;DHT22;64019;48.312;14.226;2024-02-26T02:40:32;1.10;99.90
75442;DHT22;64019;48.312;14.226;2024-02-26T02:42:58;1.10;99.90
75442;DHT22;64019;48.312;14.226;2024-02-26T02:45:24;1.00;99.90
75442;DHT22;64019;48.312;14.226;2024-02-26T02:47:49;1.00;99.90
75442;DHT22;64019;48.312;14.226;2024-02-26T02:50:15;0.90;99.90
75442;DHT22;64019;48.312;14.226;2024-02-26T02:52:41;0.90;99.90
75442;DHT22;64019;48.312;14.226;2024-02-26T02:55:07;0.90;99.90
75442;DHT22;64019;48.312;14.226;2024-02-26T02:57:33;0.90;99.90
75442;DHT22;64019;48.312;14.226;2024-02-26T02:59:59;0.80;99.90
75442;DHT22;64019;48.312;14.226;2024-02-26T03:02:25;0.70;99.90
75442;DHT22;64019;48.312;14.226;2024-02-26T03:04:51;0.50;99.90
75442;DHT22;64019;48.312;14.226;2024-02-26T03:07:16;0.50;99.90
75442;DHT22;64019;48.312;14.226;2024-02-26T03:09:42;0.50;99.90
75442;DHT22;64019;48.312;14.226;2024-02-26T03:12:08;0.50;99.90
75442;DHT22;64019;48.312;14.226;2024-02-26T03:14:34;0.50;99.90
75442;DHT22;64019;48.312;14.226;2024-02-26T03:17:00;0.60;99.90
75442;DHT22;64019;48.312;14.226;2024-02-26T03:19:26;0.60;99.90
75442;DHT22;64019;48.312;14.226;2024-02-26T03:21:52;0.80;99.90
75442;DHT22;64019;48.312;14.226;2024-02-26T03:24:18;0.80;99.90
75442;DHT22;64019;48.312;14.226;2024-02-26T03:26:43;0.90;99.90
75442;DHT22;64019;48.312;14.226;2024-02-26T03:29:09;0.90;99.90
75442;DHT22;64019;48.312;14.226;2024-02-26T03:31:34;1.00;99.90
75442;DHT22;64019;48.312;14.226;2024-02-26T03:34:00;0.90;99.90
75442;DHT22;64019;48.312;14.226;2024-02-26T03:36:26;0.90;99.90
75442;DHT22;64019;48.312;14.226;2024-02-26T03:38:52;0.90;99.90
75442;DHT22;64019;48.312;14.226;2024-02-26T03:41:18;0.80;99.90
75442;DHT22;64019;48.312;14.226;2024-02-26T03:43:43;0.80;99.90
75442;DHT22;64019;48.312;14.226;2024-02-26T03:46:10;0.80;99.90
75442;DHT22;64019;48.312;14.226;2024-02-26T03:48:39;0.70;99.90
75442;DHT22;64019;48.312;14.226;2024-02-26T03:51:05;0.60;99.90
75442;DHT22;64019;48.312;14.226;2024-02-26T03:53:31;0.70;99.90
75442;DHT22;64019;48.312;14.226;2024-02-26T03:55:56;0.60;99.90
75442;DHT22;64019;48.312;14.226;2024-02-26T03:58:22;0.60;99.90
75442;DHT22;64019;48.312;14.226;2024-02-26T04:00:48;0.60;99.90
75442;DHT22;64019;48.312;14.226;2024-02-26T04:03:14;0.70;99.90
75442;DHT22;64019;48.312;14.226;2024-02-26T04:05:39;0.60;99.90
75442;DHT22;64019;48.312;14.226;2024-02-26T04:08:05;0.70;99.90
75442;DHT22;64019;48.312;14.226;2024-02-26T04:10:33;0.70;99.90
75442;DHT22;64019;48.312;14.226;2024-02-26T04:13:00;0.70;99.90
75442;DHT22;64019;48.312;14.226;2024-02-26T04:15:26;0.80;99.90
75442;DHT22;64019;48.312;14.226;2024-02-26T04:17:52;0.80;99.90
75442;DHT22;64019;48.312;14.226;2024-02-26T04:20:19;0.70;99.90
75442;DHT22;64019;48.312;14.226;2024-02-26T04:22:45;0.70;99.90
75442;DHT22;64019;48.312;14.226;2024-02-26T04:25:11;0.60;99.90
75442;DHT22;64019;48.312;14.226;2024-02-26T04:27:36;0.50;99.90
75442;DHT22;64019;48.312;14.226;2024-02-26T04:30:03;0.40;99.90
75442;DHT22;64019;48.312;14.226;2024-02-26T04:32:29;0.40;99.90
75442;DHT22;64019;48.312;14.226;2024-02-26T04:34:55;0.40;99.90
75442;DHT22;64019;48.312;14.226;2024-02-26T04:37:20;0.30;99.90
75442;DHT22;64019;48.312;14.226;2024-02-26T04:39:46;0.30;99.90
75442;DHT22;64019;48.312;14.226;2024-02-26T04:42:12;0.30;99.90
75442;DHT22;64019;48.312;14.226;2024-02-26T04:44:37;0.30;99.90
75442;DHT22;64019;48.312;14.226;2024-02-26T04:47:03;0.30;99.90
75442;DHT22;64019;48.312;14.226;2024-02-26T04:49:29;0.30;99.90
75442;DHT22;64019;48.312;14.226;2024-02-26T04:51:55;0.30;99.90
75442;DHT22;64019;48.312;14.226;2024-02-26T04:54:21;0.30;99.90
75442;DHT22;64019;48.312;14.226;2024-02-26T04:56:47;0.30;99.90
75442;DHT22;64019;48.312;14.226;2024-02-26T04:59:13;0.20;99.90
75442;DHT22;64019;48.312;14.226;2024-02-26T05:01:39;0.20;99.90
75442;DHT22;64019;48.312;14.226;2024-02-26T05:04:05;0.20;99.90
75442;DHT22;64019;48.312;14.226;2024-02-26T05:06:31;0.10;99.90
75442;DHT22;64019;48.312;14.226;2024-02-26T05:08:56;0.10;99.90
75442;DHT22;64019;48.312;14.226;2024-02-26T06:15:59;0.10;99.90
75442;DHT22;64019;48.312;14.226;2024-02-26T06:18:25;0.20;99.90
75442;DHT22;64019;48.312;14.226;2024-02-26T06:37:49;0.20;99.90
75442;DHT22;64019;48.312;14.226;2024-02-26T06:40:21;0.30;99.90
75442;DHT22;64019;48.312;14.226;2024-02-26T06:52:45;0.50;99.90
75442;DHT22;64019;48.312;14.226;2024-02-26T06:57:47;0.50;99.90
75442;DHT22;64019;48.312;14.226;2024-02-26T07:00:13;0.60;99.90
75442;DHT22;64019;48.312;14.226;2024-02-26T07:02:42;0.60;99.90
75442;DHT22;64019;48.312;14.226;2024-02-26T07:05:08;0.70;99.90
75442;DHT22;64019;48.312;14.226;2024-02-26T07:07:33;0.70;99.90
75442;DHT22;64019;48.312;14.226;2024-02-26T07:09:59;0.80;99.90
75442;DHT22;64019;48.312;14.226;2024-02-26T07:12:26;0.80;99.90
75442;DHT22;64019;48.312;14.226;2024-02-26T07:14:51;0.80;99.90
75442;DHT22;64019;48.312;14.226;2024-02-26T07:17:17;0.80;99.90
75442;DHT22;64019;48.312;14.226;2024-02-26T07:19:43;0.80;99.90
75442;DHT22;64019;48.312;14.226;2024-02-26T07:22:09;0.80;99.90
75442;DHT22;64019;48.312;14.226;2024-02-26T07:24:35;0.80;99.90
75442;DHT22;64019;48.312;14.226;2024-02-26T07:27:00;0.80;99.90
75442;DHT22;64019;48.312;14.226;2024-02-26T07:29:26;0.90;99.90
75442;DHT22;64019;48.312;14.226;2024-02-26T07:31:52;1.00;99.90
75442;DHT22;64019;48.312;14.226;2024-02-26T07:34:17;1.00;99.90
75442;DHT22;64019;48.312;14.226;2024-02-26T07:36:43;1.00;99.90
75442;DHT22;64019;48.312;14.226;2024-02-26T07:39:10;1.00;99.90
75442;DHT22;64019;48.312;14.226;2024-02-26T07:41:35;1.00;99.90
75442;DHT22;64019;48.312;14.226;2024-02-26T07:44:01;1.00;99.90
75442;DHT22;64019;48.312;14.226;2024-02-26T07:46:26;1.10;99.90
75442;DHT22;64019;48.312;14.226;2024-02-26T07:48:52;1.10;99.90
75442;DHT22;64019;48.312;14.226;2024-02-26T07:51:18;1.10;99.90
75442;DHT22;64019;48.312;14.226;2024-02-26T07:53:44;1.20;99.90
75442;DHT22;64019;48.312;14.226;2024-02-26T07:56:10;1.30;99.90
75442;DHT22;64019;48.312;14.226;2024-02-26T07:58:36;1.30;99.90
75442;DHT22;64019;48.312;14.226;2024-02-26T08:01:02;1.40;99.90
75442;DHT22;64019;48.312;14.226;2024-02-26T08:03:27;1.50;99.90
75442;DHT22;64019;48.312;14.226;2024-02-26T08:05:53;1.60;99.90
75442;DHT22;64019;48.312;14.226;2024-02-26T08:08:20;1.60;99.90
75442;DHT22;64019;48.312;14.226;2024-02-26T08:10:46;1.70;99.90
75442;DHT22;64019;48.312;14.226;2024-02-26T08:13:11;1.80;99.90
75442;DHT22;64019;48.312;14.226;2024-02-26T08:15:37;1.90;99.90
75442;DHT22;64019;48.312;14.226;2024-02-26T08:18:03;1.90;99.90
75442;DHT22;64019;48.312;14.226;2024-02-26T08:20:30;1.80;99.90
75442;DHT22;64019;48.312;14.226;2024-02-26T08:22:56;1.80;99.90
75442;DHT22;64019;48.312;14.226;2024-02-26T08:25:22;1.80;99.90
75442;DHT22;64019;48.312;14.226;2024-02-26T08:27:48;1.90;99.90
75442;DHT22;64019;48.312;14.226;2024-02-26T08:30:15;2.10;99.90
75442;DHT22;64019;48.312;14.226;2024-02-26T08:32:47;2.10;99.90
75442;DHT22;64019;48.312;14.226;2024-02-26T08:35:12;2.10;99.90
75442;DHT22;64019;48.312;14.226;2024-02-26T08:37:38;2.10;99.90
75442;DHT22;64019;48.312;14.226;2024-02-26T08:40:05;2.10;99.90
75442;DHT22;64019;48.312;14.226;2024-02-26T08:42:31;2.10;99.90
75442;DHT22;64019;48.312;14.226;2024-02-26T08:44:58;2.20;99.90
75442;DHT22;64019;48.312;14.226;2024-02-26T08:47:27;2.30;99.90
75442;DHT22;64019;48.312;14.226;2024-02-26T08:49:53;2.40;99.90
75442;DHT22;64019;48.312;14.226;2024-02-26T08:52:19;2.50;99.90
75442;DHT22;64019;48.312;14.226;2024-02-26T08:54:45;2.50;99.90
75442;DHT22;64019;48.312;14.226;2024-02-26T08:57:11;2.60;99.90
75442;DHT22;64019;48.312;14.226;2024-02-26T08:59:36;2.60;99.90
75442;DHT22;64019;48.312;14.226;2024-02-26T09:02:02;2.60;99.90
75442;DHT22;64019;48.312;14.226;2024-02-26T09:04:28;2.80;99.90
75442;DHT22;64019;48.312;14.226;2024-02-26T09:06:54;3.00;99.90
75442;DHT22;64019;48.312;14.226;2024-02-26T09:09:20;3.00;99.90
75442;DHT22;64019;48.312;14.226;2024-02-26T09:11:47;3.20;99.90
75442;DHT22;64019;48.312;14.226;2024-02-26T09:14:14;3.20;99.90
75442;DHT22;64019;48.312;14.226;2024-02-26T09:16:39;3.20;99.90
75442;DHT22;64019;48.312;14.226;2024-02-26T09:19:05;3.10;99.90
75442;DHT22;64019;48.312;14.226;2024-02-26T09:21:31;3.10;99.90
75442;DHT22;64019;48.312;14.226;2024-02-26T09:23:56;3.10;99.90
75442;DHT22;64019;48.312;14.226;2024-02-26T09:26:22;3.10;99.90
75442;DHT22;64019;48.312;14.226;2024-02-26T09:28:48;3.20;99.90
75442;DHT22;64019;48.312;14.226;2024-02-26T09:31:15;3.30;99.90
75442;DHT22;64019;48.312;14.226;2024-02-26T09:33:42;3.30;99.90
75442;DHT22;64019;48.312;14.226;2024-02-26T09:36:08;3.40;99.90
75442;DHT22;64019;48.312;14.226;2024-02-26T09:38:37;3.60;99.90
75442;DHT22;64019;48.312;14.226;2024-02-26T09:41:05;3.60;99.90
75442;DHT22;64019;48.312;14.226;2024-02-26T09:43:35;3.70;99.90
75442;DHT22;64019;48.312;14.226;2024-02-26T09:46:05;3.80;99.90
75442;DHT22;64019;48.312;14.226;2024-02-26T09:48:32;3.90;99.90
75442;DHT22;64019;48.312;14.226;2024-02-26T09:51:01;4.00;99.90
75442;DHT22;64019;48.312;14.226;2024-02-26T09:53:29;4.00;99.90
75442;DHT22;64019;48.312;14.226;2024-02-26T09:55:58;4.00;99.90
75442;DHT22;64019;48.312;14.226;2024-02-26T09:58:26;3.90;99.90
75442;DHT22;64019;48.312;14.226;2024-02-26T10:00:56;4.00;99.90
75442;DHT22;64019;48.312;14.226;2024-02-26T10:03:38;4.00;99.90
75442;DHT22;64019;48.312;14.226;2024-02-26T10:06:04;4.00;99.90
75442;DHT22;64019;48.312;14.226;2024-02-26T10:08:31;4.10;99.90
75442;DHT22;64019;48.312;14.226;2024-02-26T10:10:57;4.20;99.90
75442;DHT22;64019;48.312;14.226;2024-02-26T10:13:25;4.30;99.90
75442;DHT22;64019;48.312;14.226;2024-02-26T10:15:51;4.50;99.90
75442;DHT22;64019;48.312;14.226;2024-02-26T10:18:16;4.50;99.90
75442;DHT22;64019;48.312;14.226;2024-02-26T10:20:42;4.70;99.90
75442;DHT22;64019;48.312;14.226;2024-02-26T10:23:08;4.80;99.90
75442;DHT22;64019;48.312;14.226;2024-02-26T10:25:34;4.90;99.90
75442;DHT22;64019;48.312;14.226;2024-02-26T10:28:00;4.90;99.90
75442;DHT22;64019;48.312;14.226;2024-02-26T10:30:28;4.90;99.90
75442;DHT22;64019;48.312;14.226;2024-02-26T10:32:55;4.90;99.90
75442;DHT22;64019;48.312;14.226;2024-02-26T10:35:21;4.90;99.90
75442;DHT22;64019;48.312;14.226;2024-02-26T10:37:47;4.90;99.90
75442;DHT22;64019;48.312;14.226;2024-02-26T10:40:14;5.00;99.90
75442;DHT22;64019;48.312;14.226;2024-02-26T10:42:41;5.10;99.90
75442;DHT22;64019;48.312;14.226;2024-02-26T10:45:09;5.30;99.90
75442;DHT22;64019;48.312;14.226;2024-02-26T10:47:47;5.40;99.90
75442;DHT22;64019;48.312;14.226;2024-02-26T10:50:14;5.50;99.90
75442;DHT22;64019;48.312;14.226;2024-02-26T10:52:43;5.60;99.90
75442;DHT22;64019;48.312;14.226;2024-02-26T10:55:16;5.70;99.90
75442;DHT22;64019;48.312;14.226;2024-02-26T10:57:45;5.80;99.90
75442;DHT22;64019;48.312;14.226;2024-02-26T11:00:15;6.00;99.90
75442;DHT22;64019;48.312;14.226;2024-02-26T11:02:41;6.10;99.90
75442;DHT22;64019;48.312;14.226;2024-02-26T11:05:11;6.20;99.90
75442;DHT22;64019;48.312;14.226;2024-02-26T11:07:37;6.40;99.90
75442;DHT22;64019;48.312;14.226;2024-02-26T11:10:04;6.50;99.90
75442;DHT22;64019;48.312;14.226;2024-02-26T11:12:51;6.60;99.90
75442;DHT22;64019;48.312;14.226;2024-02-26T11:15:18;6.60;99.90
75442;DHT22;64019;48.312;14.226;2024-02-26T11:17:46;6.70;99.90
75442;DHT22;64019;48.312;14.226;2024-02-26T11:20:14;6.80;99.90
75442;DHT22;64019;48.312;14.226;2024-02-26T11:22:40;6.90;99.90
75442;DHT22;64019;48.312;14.226;2024-02-26T11:25:06;7.10;99.90
75442;DHT22;64019;48.312;14.226;2024-02-26T11:27:39;7.20;99.90
75442;DHT22;64019;48.312;14.226;2024-02-26T11:30:10;7.30;99.90
75442;DHT22;64019;48.312;14.226;2024-02-26T11:32:38;7.40;99.90
75442;DHT22;64019;48.312;14.226;2024-02-26T11:35:07;7.40;99.90
75442;DHT22;64019;48.312;14.226;2024-02-26T11:37:33;7.50;99.90
75442;DHT22;64019;48.312;14.226;2024-02-26T11:39:59;7.40;99.90
75442;DHT22;64019;48.312;14.226;2024-02-26T11:42:29;7.40;99.90
75442;DHT22;64019;48.312;14.226;2024-02-26T11:44:55;7.40;99.90
75442;DHT22;64019;48.312;14.226;2024-02-26T11:47:27;7.40;99.90
75442;DHT22;64019;48.312;14.226;2024-02-26T11:49:52;7.60;99.90
75442;DHT22;64019;48.312;14.226;2024-02-26T11:52:18;7.70;99.90
75442;DHT22;64019;48.312;14.226;2024-02-26T11:54:56;7.80;99.90
75442;DHT22;64019;48.312;14.226;2024-02-26T11:57:40;7.90;99.90
75442;DHT22;64019;48.312;14.226;2024-02-26T12:02:43;8.10;99.90
75442;DHT22;64019;48.312;14.226;2024-02-26T12:05:31;8.20;99.90
75442;DHT22;64019;48.312;14.226;2024-02-26T12:08:05;8.20;99.90
75442;DHT22;64019;48.312;14.226;2024-02-26T12:10:39;8.00;99.90
75442;DHT22;64019;48.312;14.226;2024-02-26T12:13:12;8.00;99.90
75442;DHT22;64019;48.312;14.226;2024-02-26T12:15:41;8.10;99.90
75442;DHT22;64019;48.312;14.226;2024-02-26T12:18:08;8.20;99.90
75442;DHT22;64019;48.312;14.226;2024-02-26T12:20:38;8.10;99.90
75442;DHT22;64019;48.312;14.226;2024-02-26T12:23:04;8.00;99.90
75442;DHT22;64019;48.312;14.226;2024-02-26T12:25:31;8.00;99.90
75442;DHT22;64019;48.312;14.226;2024-02-26T12:27:59;8.00;99.90
75442;DHT22;64019;48.312;14.226;2024-02-26T12:30:25;7.90;99.90
75442;DHT22;64019;48.312;14.226;2024-02-26T12:32:53;8.00;99.90
75442;DHT22;64019;48.312;14.226;2024-02-26T12:35:23;8.00;99.90
75442;DHT22;64019;48.312;14.226;2024-02-26T12:37:50;7.90;99.90
75442;DHT22;64019;48.312;14.226;2024-02-26T12:40:17;7.90;99.90
75442;DHT22;64019;48.312;14.226;2024-02-26T12:42:43;8.00;99.90
75442;DHT22;64019;48.312;14.226;2024-02-26T12:45:11;8.10;99.90
75442;DHT22;64019;48.312;14.226;2024-02-26T12:47:43;8.10;99.90
75442;DHT22;64019;48.312;14.226;2024-02-26T12:50:11;8.20;99.90
75442;DHT22;64019;48.312;14.226;2024-02-26T12:52:44;8.30;99.90
75442;DHT22;64019;48.312;14.226;2024-02-26T12:55:14;8.30;99.90
75442;DHT22;64019;48.312;14.226;2024-02-26T12:57:41;8.30;99.90
75442;DHT22;64019;48.312;14.226;2024-02-26T13:00:14;8.40;99.90
75442;DHT22;64019;48.312;14.226;2024-02-26T13:02:40;8.50;99.90
75442;DHT22;64019;48.312;14.226;2024-02-26T13:05:08;8.60;99.90
75442;DHT22;64019;48.312;14.226;2024-02-26T13:07:40;8.70;99.90
75442;DHT22;64019;48.312;14.226;2024-02-26T13:10:06;8.80;99.90
75442;DHT22;64019;48.312;14.226;2024-02-26T13:12:32;9.00;99.90
75442;DHT22;64019;48.312;14.226;2024-02-26T13:15:02;9.10;99.90
75442;DHT22;64019;48.312;14.226;2024-02-26T13:17:31;9.10;99.90
75442;DHT22;64019;48.312;14.226;2024-02-26T13:19:57;9.20;99.90
75442;DHT22;64019;48.312;14.226;2024-02-26T13:22:23;9.20;99.90
75442;DHT22;64019;48.312;14.226;2024-02-26T13:24:59;9.30;99.90
75442;DHT22;64019;48.312;14.226;2024-02-26T13:27:25;9.30;99.90
75442;DHT22;64019;48.312;14.226;2024-02-26T13:30:11;9.20;99.90
75442;DHT22;64019;48.312;14.226;2024-02-26T13:32:39;9.20;99.90
75442;DHT22;64019;48.312;14.226;2024-02-26T13:35:12;9.20;99.90
75442;DHT22;64019;48.312;14.226;2024-02-26T13:37:39;9.20;99.90
75442;DHT22;64019;48.312;14.226;2024-02-26T13:40:09;9.20;99.90
75442;DHT22;64019;48.312;14.226;2024-02-26T13:42:36;9.30;99.90
75442;DHT22;64019;48.312;14.226;2024-02-26T13:45:02;9.30;99.90
75442;DHT22;64019;48.312;14.226;2024-02-26T13:47:28;9.20;99.90
75442;DHT22;64019;48.312;14.226;2024-02-26T13:49:54;9.20;99.90
75442;DHT22;64019;48.312;14.226;2024-02-26T13:52:20;9.30;99.90
75442;DHT22;64019;48.312;14.226;2024-02-26T13:54:46;9.30;99.90
75442;DHT22;64019;48.312;14.226;2024-02-26T13:57:12;9.40;99.90
75442;DHT22;64019;48.312;14.226;2024-02-26T13:59:38;9.50;99.90
75442;DHT22;64019;48.312;14.226;2024-02-26T14:02:10;9.50;99.90
75442;DHT22;64019;48.312;14.226;2024-02-26T14:04:37;9.60;99.90
75442;DHT22;64019;48.312;14.226;2024-02-26T14:07:03;9.80;99.90
75442;DHT22;64019;48.312;14.226;2024-02-26T14:09:29;9.90;99.90
75442;DHT22;64019;48.312;14.226;2024-02-26T14:11:55;9.90;99.90
75442;DHT22;64019;48.312;14.226;2024-02-26T14:14:20;9.90;99.90
75442;DHT22;64019;48.312;14.226;2024-02-26T14:16:46;10.10;99.90
75442;DHT22;64019;48.312;14.226;2024-02-26T14:19:12;10.10;99.90
75442;DHT22;64019;48.312;14.226;2024-02-26T14:21:37;10.00;99.90
75442;DHT22;64019;48.312;14.226;2024-02-26T14:24:04;10.00;99.90
75442;DHT22;64019;48.312;14.226;2024-02-26T14:26:30;10.00;99.90
75442;DHT22;64019;48.312;14.226;2024-02-26T14:28:55;10.00;99.90
75442;DHT22;64019;48.312;14.226;2024-02-26T14:31:21;10.00;99.90
75442;DHT22;64019;48.312;14.226;2024-02-26T14:33:47;9.90;99.90
75442;DHT22;64019;48.312;14.226;2024-02-26T14:36:13;9.90;99.90
75442;DHT22;64019;48.312;14.226;2024-02-26T14:38:39;9.90;99.90
75442;DHT22;64019;48.312;14.226;2024-02-26T14:41:05;9.80;99.90
75442;DHT22;64019;48.312;14.226;2024-02-26T14:43:31;9.90;99.90
75442;DHT22;64019;48.312;14.226;2024-02-26T14:45:58;9.80;99.90
75442;DHT22;64019;48.312;14.226;2024-02-26T14:48:25;9.80;99.90
75442;DHT22;64019;48.312;14.226;2024-02-26T14:50:51;9.80;99.90
75442;DHT22;64019;48.312;14.226;2024-02-26T14:53:17;9.80;99.90
75442;DHT22;64019;48.312;14.226;2024-02-26T14:55:43;9.80;99.90
75442;DHT22;64019;48.312;14.226;2024-02-26T14:58:09;9.80;99.90
75442;DHT22;64019;48.312;14.226;2024-02-26T15:00:38;9.90;99.90
75442;DHT22;64019;48.312;14.226;2024-02-26T15:03:04;9.90;99.90
75442;DHT22;64019;48.312;14.226;2024-02-26T15:05:29;9.80;99.90
75442;DHT22;64019;48.312;14.226;2024-02-26T15:07:55;9.70;99.90
75442;DHT22;64019;48.312;14.226;2024-02-26T15:10:21;9.70;99.90
75442;DHT22;64019;48.312;14.226;2024-02-26T15:12:46;9.60;99.90
75442;DHT22;64019;48.312;14.226;2024-02-26T15:15:13;9.60;99.90
75442;DHT22;64019;48.312;14.226;2024-02-26T15:17:39;9.50;99.90
75442;DHT22;64019;48.312;14.226;2024-02-26T15:20:05;9.50;99.90
75442;DHT22;64019;48.312;14.226;2024-02-26T15:22:33;9.40;99.90
75442;DHT22;64019;48.312;14.226;2024-02-26T15:24:59;9.40;99.90
75442;DHT22;64019;48.312;14.226;2024-02-26T15:27:25;9.40;99.90
75442;DHT22;64019;48.312;14.226;2024-02-26T15:29:50;9.50;99.90
75442;DHT22;64019;48.312;14.226;2024-02-26T15:32:23;9.50;99.90
75442;DHT22;64019;48.312;14.226;2024-02-26T15:34:50;9.50;99.90
75442;DHT22;64019;48.312;14.226;2024-02-26T15:37:17;9.40;99.90
75442;DHT22;64019;48.312;14.226;2024-02-26T15:39:42;9.40;99.90
75442;DHT22;64019;48.312;14.226;2024-02-26T15:42:08;9.40;99.90
75442;DHT22;64019;48.312;14.226;2024-02-26T15:44:34;9.40;99.90
75442;DHT22;64019;48.312;14.226;2024-02-26T15:47:02;9.30;99.90
75442;DHT22;64019;48.312;14.226;2024-02-26T15:49:28;9.20;99.90
75442;DHT22;64019;48.312;14.226;2024-02-26T15:51:55;9.20;99.90
75442;DHT22;64019;48.312;14.226;2024-02-26T15:54:21;9.10;99.90
75442;DHT22;64019;48.312;14.226;2024-02-26T15:56:46;9.10;99.90
75442;DHT22;64019;48.312;14.226;2024-02-26T15:59:12;9.00;99.90
75442;DHT22;64019;48.312;14.226;2024-02-26T16:01:38;9.00;99.90
75442;DHT22;64019;48.312;14.226;2024-02-26T16:04:04;9.00;99.90
75442;DHT22;64019;48.312;14.226;2024-02-26T16:06:37;8.90;99.90
75442;DHT22;64019;48.312;14.226;2024-02-26T16:09:05;8.80;99.90
75442;DHT22;64019;48.312;14.226;2024-02-26T16:11:30;8.80;99.90
75442;DHT22;64019;48.312;14.226;2024-02-26T16:14:09;8.70;99.90
75442;DHT22;64019;48.312;14.226;2024-02-26T16:16:41;8.70;99.90
75442;DHT22;64019;48.312;14.226;2024-02-26T16:19:12;8.60;99.90
75442;DHT22;64019;48.312;14.226;2024-02-26T16:21:38;8.50;99.90
75442;DHT22;64019;48.312;14.226;2024-02-26T16:24:05;8.40;99.90
75442;DHT22;64019;48.312;14.226;2024-02-26T16:26:31;8.30;99.90
75442;DHT22;64019;48.312;14.226;2024-02-26T16:28:57;8.20;99.90
75442;DHT22;64019;48.312;14.226;2024-02-26T16:31:23;8.20;99.90
75442;DHT22;64019;48.312;14.226;2024-02-26T16:33:50;8.20;99.90
75442;DHT22;64019;48.312;14.226;2024-02-26T16:36:16;8.20;99.90
75442;DHT22;64019;48.312;14.226;2024-02-26T16:38:43;8.00;99.90
75442;DHT22;64019;48.312;14.226;2024-02-26T16:41:08;7.80;99.90
75442;DHT22;64019;48.312;14.226;2024-02-26T16:43:34;7.80;99.90
75442;DHT22;64019;48.312;14.226;2024-02-26T16:46:01;7.60;99.90
75442;DHT22;64019;48.312;14.226;2024-02-26T16:48:33;7.50;99.90
75442;DHT22;64019;48.312;14.226;2024-02-26T16:51:00;7.40;99.90
75442;DHT22;64019;48.312;14.226;2024-02-26T16:53:25;7.30;99.90
75442;DHT22;64019;48.312;14.226;2024-02-26T16:55:51;7.20;99.90
75442;DHT22;64019;48.312;14.226;2024-02-26T16:58:17;7.20;99.90
75442;DHT22;64019;48.312;14.226;2024-02-26T17:00:42;7.20;99.90
75442;DHT22;64019;48.312;14.226;2024-02-26T17:03:08;7.10;99.90
75442;DHT22;64019;48.312;14.226;2024-02-26T17:05:33;7.00;99.90